createdAt,value
2023-05-05T00:00:30.707Z,97818.80
2023-05-05T00:03:23.871Z,97820.84
2023-05-05T00:05:59.020Z,97817.70
2023-05-05T00:08:35.221Z,97816.29
2023-05-05T00:11:08.562Z,97811.05
2023-05-05T00:13:37.551Z,97811.66
2023-05-05T00:16:23.499Z,97811.02
2023-05-05T00:18:50.296Z,97806.91
2023-05-05T00:21:17.014Z,97800.64
2023-05-05T00:23:43.586Z,97801.38
2023-05-05T00:26:10.327Z,97802.13
2023-05-05T00:28:37.776Z,97802.88
2023-05-05T00:31:04.690Z,97809.77
2023-05-05T00:33:31.431Z,97819.68
2023-05-05T00:35:58.137Z,97823.00
2023-05-05T00:38:24.731Z,97827.02
2023-05-05T00:40:54.225Z,97825.86
2023-05-05T00:43:23.233Z,97822.81
2023-05-05T00:45:59.627Z,97820.20
2023-05-05T00:48:27.873Z,97813.34
2023-05-05T00:50:54.604Z,97806.71
2023-05-05T00:53:21.655Z,97807.09
2023-05-05T00:55:49.153Z,97807.55
2023-05-05T00:58:16.984Z,97807.50
2023-05-05T01:00:43.938Z,97807.52
2023-05-05T01:03:14.564Z,97808.95
2023-05-05T01:06:07.354Z,97808.65
2023-05-05T01:09:17.071Z,97814.85
2023-05-05T01:11:56.055Z,97815.70
2023-05-05T01:14:36.326Z,97815.04
2023-05-05T01:17:33.240Z,97813.68
2023-05-05T01:20:14.972Z,97814.59
2023-05-05T01:23:05.373Z,97814.30
2023-05-05T01:25:50.152Z,97812.30
2023-05-05T01:29:00.128Z,97807.52
2023-05-05T01:32:05.956Z,97804.23
2023-05-05T01:34:44.380Z,97804.34
2023-05-05T01:37:21.780Z,97805.98
2023-05-05T01:40:11.333Z,97809.73
2023-05-05T01:42:41.966Z,97805.30
2023-05-05T01:45:14.059Z,97803.45
2023-05-05T01:47:42.119Z,97801.54
2023-05-05T01:50:10.871Z,97803.55
2023-05-05T01:52:39.432Z,97798.96
2023-05-05T01:55:08.249Z,97800.77
2023-05-05T01:57:38.489Z,97800.47
2023-05-05T02:00:07.354Z,97805.70
2023-05-05T02:02:44.720Z,97805.94
2023-05-05T02:05:13.125Z,97802.47
2023-05-05T02:07:40.155Z,97799.64
2023-05-05T02:10:08.986Z,97798.52
2023-05-05T02:12:36.975Z,97799.17
2023-05-05T02:15:05.340Z,97798.07
2023-05-05T02:17:32.747Z,97799.32
2023-05-05T02:20:02.314Z,97797.30
2023-05-05T02:22:28.939Z,97799.72
2023-05-05T02:24:55.604Z,97799.83
2023-05-05T02:27:24.044Z,97798.77
2023-05-05T02:29:55.995Z,97799.31
2023-05-05T02:33:15.660Z,97802.92
2023-05-05T02:35:52.356Z,97802.06
2023-05-05T02:38:27.184Z,97804.17
2023-05-05T02:40:57.624Z,97808.10
2023-05-05T02:43:26.777Z,97807.46
2023-05-05T02:45:53.556Z,97809.02
2023-05-05T02:48:20.606Z,97810.95
2023-05-05T02:50:48.889Z,97808.33
2023-05-05T02:53:36.196Z,97809.63
2023-05-05T02:56:32.636Z,97811.23
2023-05-05T02:59:09.405Z,97810.80
2023-05-05T03:01:56.096Z,97811.09
2023-05-05T03:04:28.690Z,97812.42
2023-05-05T03:07:06.145Z,97818.16
2023-05-05T03:09:39.252Z,97819.29
2023-05-05T03:12:11.936Z,97815.12
2023-05-05T03:14:51.316Z,97814.91
2023-05-05T03:17:19.776Z,97815.81
2023-05-05T03:19:48.982Z,97818.98
2023-05-05T03:22:18.074Z,97819.56
2023-05-05T03:24:51.134Z,97821.14
2023-05-05T03:27:21.530Z,97821.29
2023-05-05T03:29:51.309Z,97821.08
2023-05-05T03:32:23.055Z,97823.74
2023-05-05T03:34:50.284Z,97824.45
2023-05-05T03:37:17.261Z,97827.77
2023-05-05T03:39:44.017Z,97833.77
2023-05-05T03:42:11.250Z,97830.92
2023-05-05T03:44:40.732Z,97833.42
2023-05-05T03:47:11.067Z,97835.13
2023-05-05T03:49:38.442Z,97834.08
2023-05-05T03:52:05.692Z,97835.85
2023-05-05T03:54:32.550Z,97837.90
2023-05-05T03:56:59.289Z,97836.56
2023-05-05T03:59:26.276Z,97837.62
2023-05-05T04:01:53.196Z,97845.65
2023-05-05T04:04:20.900Z,97849.60
2023-05-05T04:06:47.756Z,97854.73
2023-05-05T04:09:17.771Z,97858.09
2023-05-05T04:11:44.877Z,97855.26
2023-05-05T04:14:11.897Z,97849.37
2023-05-05T04:16:38.774Z,97850.38
2023-05-05T04:19:05.612Z,97850.23
2023-05-05T04:21:35.280Z,97852.79
2023-05-05T04:24:02.888Z,97852.67
2023-05-05T04:26:31.116Z,97858.86
2023-05-05T04:29:01.150Z,97861.39
2023-05-05T04:31:28.182Z,97866.10
2023-05-05T04:33:54.884Z,97869.36
2023-05-05T04:36:21.776Z,97871.59
2023-05-05T04:38:49.402Z,97868.98
2023-05-05T04:41:16.134Z,97868.08
2023-05-05T04:43:43.131Z,97864.27
2023-05-05T04:46:10.023Z,97862.17
2023-05-05T04:48:37.918Z,97860.91
2023-05-05T04:51:07.701Z,97861.16
2023-05-05T04:53:37.876Z,97862.86
2023-05-05T04:56:04.770Z,97865.06
2023-05-05T04:58:32.087Z,97865.98
2023-05-05T05:00:58.864Z,97869.75
2023-05-05T05:03:29.048Z,97869.49
2023-05-05T05:05:56.010Z,97868.63
2023-05-05T05:08:23.433Z,97872.81
2023-05-05T05:10:50.786Z,97873.38
2023-05-05T05:13:37.791Z,97880.50
2023-05-05T05:16:05.981Z,97883.73
2023-05-05T05:18:33.171Z,97887.77
2023-05-05T05:21:00.261Z,97888.80
2023-05-05T05:23:27.324Z,97889.41
2023-05-05T05:25:54.274Z,97892.11
2023-05-05T05:28:21.432Z,97892.35
2023-05-05T05:30:52.106Z,97886.11
2023-05-05T05:33:21.597Z,97886.68
2023-05-05T05:35:49.101Z,97886.14
2023-05-05T05:38:17.386Z,97886.85
2023-05-05T05:40:44.130Z,97888.54
2023-05-05T05:43:10.789Z,97889.77
2023-05-05T05:45:38.337Z,97891.70
2023-05-05T05:48:05.709Z,97888.98
2023-05-05T05:50:32.517Z,97888.85
2023-05-05T05:52:59.582Z,97887.63
2023-05-05T05:55:26.610Z,97886.54
2023-05-05T05:57:53.493Z,97886.82
2023-05-05T06:00:20.541Z,97889.95
2023-05-05T06:02:51.122Z,97889.12
2023-05-05T06:05:20.239Z,97887.71
2023-05-05T06:07:47.660Z,97890.10
2023-05-05T06:10:27.201Z,97888.67
2023-05-05T06:12:59.930Z,97886.91
2023-05-05T06:15:26.782Z,97888.70
2023-05-05T06:17:54.089Z,97893.58
2023-05-05T06:20:21.876Z,97890.41
2023-05-05T06:22:48.877Z,97889.70
2023-05-05T06:25:16.068Z,97887.55
2023-05-05T06:27:42.703Z,97884.44
2023-05-05T06:30:10.245Z,97879.27
2023-05-05T06:32:37.219Z,97876.02
2023-05-05T06:35:04.260Z,97875.62
2023-05-05T06:37:31.005Z,97875.98
2023-05-05T06:39:57.741Z,97879.73
2023-05-05T06:42:24.434Z,97880.08
2023-05-05T06:44:52.110Z,97880.13
2023-05-05T06:47:19.339Z,97877.86
2023-05-05T06:49:46.015Z,97876.75
2023-05-05T06:52:12.794Z,97870.88
2023-05-05T06:54:39.426Z,97871.64
2023-05-05T06:57:06.421Z,97869.42
2023-05-05T06:59:33.025Z,97869.75
2023-05-05T07:01:59.855Z,97866.25
2023-05-05T07:04:26.662Z,97864.00
2023-05-05T07:06:54.531Z,97865.02
2023-05-05T07:09:21.150Z,97864.51
2023-05-05T07:11:47.709Z,97862.06
2023-05-05T07:14:15.713Z,97859.92
2023-05-05T07:16:42.378Z,97857.61
2023-05-05T07:19:09.193Z,97857.51
2023-05-05T07:21:35.983Z,97858.71
2023-05-05T07:24:03.050Z,97859.10
2023-05-05T07:26:29.819Z,97859.45
2023-05-05T07:28:58.015Z,97854.75
2023-05-05T07:31:25.739Z,97857.59
2023-05-05T07:33:52.389Z,97859.30
2023-05-05T07:36:19.796Z,97856.04
2023-05-05T07:38:46.487Z,97852.63
2023-05-05T07:41:13.230Z,97846.41
2023-05-05T07:43:41.678Z,97849.37
2023-05-05T07:46:09.813Z,97848.31
2023-05-05T07:48:36.824Z,97842.22
2023-05-05T07:51:03.484Z,97847.27
2023-05-05T07:53:30.464Z,97843.58
2023-05-05T07:55:57.047Z,97841.86
2023-05-05T07:58:23.741Z,97841.55
2023-05-05T08:00:50.702Z,97843.99
2023-05-05T08:03:20.011Z,97847.52
2023-05-05T08:05:46.799Z,97840.73
2023-05-05T08:08:13.374Z,97842.13
2023-05-05T08:10:39.952Z,97845.64
2023-05-05T08:13:06.861Z,97846.41
2023-05-05T08:15:33.629Z,97846.77
2023-05-05T08:18:00.494Z,97847.50
2023-05-05T08:20:28.796Z,97849.02
2023-05-05T08:22:55.823Z,97848.88
2023-05-05T08:25:22.857Z,97848.72
2023-05-05T08:27:50.239Z,97848.19
2023-05-05T08:30:20.233Z,97843.73
2023-05-05T08:32:46.966Z,97842.20
2023-05-05T08:35:13.835Z,97842.27
2023-05-05T08:37:40.757Z,97843.15
2023-05-05T08:40:10.909Z,97842.77
2023-05-05T08:42:39.147Z,97844.78
2023-05-05T08:45:08.683Z,97841.48
2023-05-05T08:47:36.974Z,97839.05
2023-05-05T08:50:07.478Z,97837.73
2023-05-05T08:52:49.840Z,97839.64
2023-05-05T08:55:26.023Z,97836.50
2023-05-05T08:57:56.248Z,97835.57
2023-05-05T09:00:25.872Z,97834.73
2023-05-05T09:02:55.644Z,97837.50
2023-05-05T09:05:23.468Z,97834.98
2023-05-05T09:07:50.647Z,97831.40
2023-05-05T09:10:20.302Z,97829.25
2023-05-05T09:12:49.140Z,97832.10
2023-05-05T09:15:18.496Z,97831.31
2023-05-05T09:17:46.503Z,97830.93
2023-05-05T09:20:14.408Z,97833.16
2023-05-05T09:22:43.705Z,97832.76
2023-05-05T09:25:15.698Z,97830.39
2023-05-05T09:27:45.238Z,97828.41
2023-05-05T09:30:16.002Z,97825.56
2023-05-05T09:32:48.188Z,97820.65
2023-05-05T09:35:16.129Z,97820.48
2023-05-05T09:37:46.144Z,97815.36
2023-05-05T09:40:14.575Z,97815.42
2023-05-05T09:42:41.186Z,97811.32
2023-05-05T09:45:16.765Z,97813.30
2023-05-05T09:47:47.595Z,97811.88
2023-05-05T09:50:18.031Z,97808.39
2023-05-05T09:52:59.345Z,97808.29
2023-05-05T09:55:26.518Z,97805.20
2023-05-05T09:57:53.524Z,97803.52
2023-05-05T10:00:21.301Z,97801.17
2023-05-05T10:02:48.141Z,97796.84
2023-05-05T10:05:16.838Z,97794.98
2023-05-05T10:07:46.945Z,97795.44
2023-05-05T10:10:16.493Z,97795.49
2023-05-05T10:12:46.051Z,97793.51
2023-05-05T10:15:15.121Z,97789.27
2023-05-05T10:20:20.064Z,97788.06
2023-05-05T10:22:52.214Z,97789.79
2023-05-05T10:25:30.532Z,97782.30
2023-05-05T10:28:02.248Z,97781.50
2023-05-05T10:30:33.158Z,97778.46
2023-05-05T10:33:31.751Z,97778.02
2023-05-05T10:36:05.396Z,97772.89
2023-05-05T10:38:35.566Z,97774.30
2023-05-05T10:41:03.180Z,97772.16
2023-05-05T10:43:31.443Z,97769.92
2023-05-05T10:45:58.828Z,97768.30
2023-05-05T10:48:35.455Z,97767.83
2023-05-05T10:51:40.436Z,97761.18
2023-05-05T10:54:19.276Z,97762.05
2023-05-05T10:56:46.553Z,97764.45
2023-05-05T10:59:40.384Z,97755.51
2023-05-05T11:02:27.472Z,97753.09
2023-05-05T11:05:17.155Z,97749.83
2023-05-05T11:07:45.606Z,97753.73
2023-05-05T11:10:14.896Z,97748.30
2023-05-05T11:13:01.988Z,97746.39
2023-05-05T11:15:28.901Z,97745.52
2023-05-05T11:18:05.766Z,97743.96
2023-05-05T11:20:36.994Z,97739.34
2023-05-05T11:23:03.628Z,97739.67
2023-05-05T11:25:40.201Z,97735.00
2023-05-05T11:28:10.835Z,97730.04
2023-05-05T11:30:56.019Z,97725.67
2023-05-05T11:33:33.211Z,97720.81
2023-05-05T11:36:02.815Z,97719.21
2023-05-05T11:38:47.148Z,97716.81
2023-05-05T11:41:26.864Z,97716.80
2023-05-05T11:44:15.375Z,97717.14
2023-05-05T11:46:51.240Z,97713.17
2023-05-05T11:49:27.792Z,97710.42
2023-05-05T11:52:07.552Z,97707.02
2023-05-05T11:54:36.188Z,97709.98
2023-05-05T11:57:05.003Z,97705.23
2023-05-05T11:59:32.307Z,97703.47
2023-05-05T12:01:59.609Z,97697.84
2023-05-05T12:04:26.482Z,97697.45
2023-05-05T12:06:54.721Z,97694.13
2023-05-05T12:09:22.657Z,97690.53
2023-05-05T12:11:51.167Z,97687.48
2023-05-05T12:14:18.209Z,97682.27
2023-05-05T12:16:57.169Z,97685.55
2023-05-05T12:19:24.463Z,97683.02
2023-05-05T12:21:53.620Z,97680.10
2023-05-05T12:24:20.238Z,97684.33
2023-05-05T12:26:47.255Z,97677.95
2023-05-05T12:29:23.851Z,97673.05
2023-05-05T12:31:51.115Z,97670.52
2023-05-05T12:34:18.704Z,97668.44
2023-05-05T12:36:46.017Z,97665.39
2023-05-05T12:39:12.982Z,97662.17
2023-05-05T12:41:39.607Z,97657.11
2023-05-05T12:44:06.476Z,97653.70
2023-05-05T12:46:46.830Z,97651.58
2023-05-05T12:49:14.017Z,97649.55
2023-05-05T12:51:55.976Z,97648.09
2023-05-05T12:54:24.331Z,97648.98
2023-05-05T12:56:51.117Z,97643.20
2023-05-05T12:59:21.097Z,97641.83
2023-05-05T13:01:55.891Z,97636.09
2023-05-05T13:04:27.292Z,97637.92
2023-05-05T13:07:12.443Z,97642.23
2023-05-05T13:09:39.824Z,97638.06
2023-05-05T13:12:08.016Z,97630.39
2023-05-05T13:14:35.850Z,97629.36
2023-05-05T13:17:05.429Z,97628.32
2023-05-05T13:19:41.124Z,97623.49
2023-05-05T13:22:12.254Z,97624.61
2023-05-05T13:24:50.811Z,97622.27
2023-05-05T13:27:19.870Z,97622.03
2023-05-05T13:29:47.256Z,97620.42
2023-05-05T13:32:14.077Z,97615.96
2023-05-05T13:34:41.928Z,97611.03
2023-05-05T13:37:08.949Z,97611.79
2023-05-05T13:39:36.281Z,97610.48
2023-05-05T13:42:03.041Z,97615.81
2023-05-05T13:44:29.909Z,97615.90
2023-05-05T13:46:57.225Z,97609.69
2023-05-05T13:49:24.140Z,97608.91
2023-05-05T13:51:50.683Z,97604.42
2023-05-05T13:54:17.425Z,97599.30
2023-05-05T13:56:44.019Z,97596.46
2023-05-05T13:59:10.651Z,97595.58
2023-05-05T14:01:37.931Z,97594.64
2023-05-05T14:04:05.862Z,97590.31
2023-05-05T14:06:33.462Z,97585.11
2023-05-05T14:09:00.793Z,97589.48
2023-05-05T14:11:27.510Z,97586.88
2023-05-05T14:13:54.290Z,97586.34
2023-05-05T14:16:21.187Z,97582.64
2023-05-05T14:18:48.061Z,97579.73
2023-05-05T14:21:14.797Z,97579.95
2023-05-05T14:23:41.432Z,97580.36
2023-05-05T14:26:08.235Z,97582.73
2023-05-05T14:28:34.783Z,97579.90
2023-05-05T14:31:01.589Z,97572.10
2023-05-05T14:33:28.392Z,97572.58
2023-05-05T14:35:55.033Z,97570.35
2023-05-05T14:38:22.034Z,97571.61
2023-05-05T14:40:48.792Z,97568.84
2023-05-05T14:43:15.512Z,97566.95
2023-05-05T14:45:43.538Z,97562.45
2023-05-05T14:48:10.250Z,97562.20
2023-05-05T14:50:37.935Z,97562.83
2023-05-05T14:53:04.761Z,97563.29
2023-05-05T14:55:32.577Z,97562.25
2023-05-05T14:57:59.213Z,97559.55
2023-05-05T15:00:26.196Z,97556.95
2023-05-05T15:02:56.126Z,97559.35
2023-05-05T15:05:22.847Z,97559.24
2023-05-05T15:07:49.867Z,97555.45
2023-05-05T15:10:18.173Z,97558.89
2023-05-05T15:12:45.762Z,97556.35
2023-05-05T15:15:14.130Z,97555.55
2023-05-05T15:17:41.335Z,97551.62
2023-05-05T15:20:08.714Z,97547.27
2023-05-05T15:22:35.764Z,97544.27
2023-05-05T15:25:02.869Z,97546.86
2023-05-05T15:27:31.005Z,97544.33
2023-05-05T15:29:57.939Z,97542.89
2023-05-05T15:32:24.752Z,97545.17
2023-05-05T15:34:51.563Z,97543.03
2023-05-05T15:37:18.255Z,97539.55
2023-05-05T15:39:47.739Z,97539.92
2023-05-05T15:42:14.370Z,97541.48
2023-05-05T15:44:40.904Z,97539.39
2023-05-05T15:47:08.479Z,97538.02
2023-05-05T15:49:38.171Z,97537.27
2023-05-05T15:52:04.796Z,97534.68
2023-05-05T15:54:31.372Z,97533.85
2023-05-05T15:56:58.015Z,97533.23
2023-05-05T15:59:25.352Z,97529.50
2023-05-05T16:01:52.319Z,97529.85
2023-05-05T16:04:18.862Z,97528.94
2023-05-05T16:06:45.517Z,97531.63
2023-05-05T16:09:12.538Z,97529.91
2023-05-05T16:11:39.280Z,97526.23
2023-05-05T16:14:06.020Z,97527.34
2023-05-05T16:16:32.894Z,97524.02
2023-05-05T16:18:59.581Z,97524.86
2023-05-05T16:21:26.958Z,97523.52
2023-05-05T16:23:53.899Z,97521.23
2023-05-05T16:26:20.794Z,97523.95
2023-05-05T16:28:48.058Z,97523.40
2023-05-05T16:31:14.806Z,97521.10
2023-05-05T16:33:43.137Z,97520.45
2023-05-05T16:36:11.699Z,97523.23
2023-05-05T16:38:39.437Z,97526.81
2023-05-05T16:41:06.524Z,97528.01
2023-05-05T16:43:36.327Z,97524.33
2023-05-05T16:46:03.537Z,97532.00
2023-05-05T16:48:33.086Z,97530.79
2023-05-05T16:50:59.854Z,97530.22
2023-05-05T16:53:26.618Z,97537.92
2023-05-05T16:55:54.043Z,97533.92
2023-05-05T16:58:24.621Z,97538.05
2023-05-05T17:00:51.936Z,97541.12
2023-05-05T17:03:19.786Z,97537.84
2023-05-05T17:05:49.146Z,97540.84
2023-05-05T17:08:16.830Z,97542.89
2023-05-05T17:10:44.923Z,97546.19
2023-05-05T17:13:13.362Z,97546.26
2023-05-05T17:15:40.289Z,97542.05
2023-05-05T17:18:08.030Z,97539.61
2023-05-05T17:20:35.824Z,97540.04
2023-05-05T17:23:02.816Z,97539.39
2023-05-05T17:25:29.563Z,97543.61
2023-05-05T17:27:56.932Z,97549.00
2023-05-05T17:30:32.648Z,97550.93
2023-05-05T17:32:59.433Z,97550.88
2023-05-05T17:35:26.254Z,97551.20
2023-05-05T17:37:53.150Z,97553.85
2023-05-05T17:40:20.098Z,97556.34
2023-05-05T17:42:46.983Z,97556.72
2023-05-05T17:45:13.736Z,97558.59
2023-05-05T17:47:40.383Z,97558.23
2023-05-05T17:50:09.697Z,97562.42
2023-05-05T17:52:36.814Z,97563.80
2023-05-05T17:55:03.840Z,97562.97
2023-05-05T17:57:30.814Z,97568.36
2023-05-05T17:59:57.607Z,97570.69
2023-05-05T18:02:24.600Z,97575.01
2023-05-05T18:04:51.472Z,97575.98
2023-05-05T18:07:18.171Z,97581.70
2023-05-05T18:09:44.784Z,97585.71
2023-05-05T18:12:11.497Z,97590.98
2023-05-05T18:14:38.173Z,97592.18
2023-05-05T18:17:04.939Z,97596.98
2023-05-05T18:19:31.807Z,97598.14
2023-05-05T18:21:58.496Z,97594.68
2023-05-05T18:24:25.620Z,97595.95
2023-05-05T18:26:52.869Z,97597.48
2023-05-05T18:29:21.220Z,97598.56
2023-05-05T18:31:51.002Z,97599.94
2023-05-05T18:34:18.808Z,97601.63
2023-05-05T18:36:46.761Z,97602.87
2023-05-05T18:39:13.904Z,97605.38
2023-05-05T18:41:40.582Z,97608.73
2023-05-05T18:44:07.386Z,97613.67
2023-05-05T18:46:34.277Z,97612.86
2023-05-05T18:49:01.304Z,97616.35
2023-05-05T18:51:28.235Z,97621.02
2023-05-05T18:53:55.004Z,97622.27
2023-05-05T18:56:21.717Z,97626.92
2023-05-05T18:58:48.859Z,97630.72
2023-05-05T19:01:15.654Z,97632.41
2023-05-05T19:03:45.849Z,97633.05
2023-05-05T19:06:13.064Z,97631.06
2023-05-05T19:08:39.910Z,97629.85
2023-05-05T19:11:08.862Z,97629.75
2023-05-05T19:16:10.513Z,97627.60
2023-05-05T19:18:37.287Z,97626.02
2023-05-05T19:21:06.763Z,97624.48
2023-05-05T19:23:35.470Z,97625.86
2023-05-05T19:26:05.347Z,97624.92
2023-05-05T19:28:32.775Z,97624.14
2023-05-05T19:30:59.563Z,97628.65
2023-05-05T19:33:26.398Z,97630.80
2023-05-05T19:35:53.100Z,97628.98
2023-05-05T19:38:19.686Z,97630.90
2023-05-05T19:40:46.599Z,97633.77
2023-05-05T19:43:15.689Z,97630.86
2023-05-05T19:45:42.440Z,97629.86
2023-05-05T19:48:09.235Z,97634.47
2023-05-05T19:50:36.224Z,97634.83
2023-05-05T19:53:04.202Z,97634.65
2023-05-05T19:55:32.507Z,97635.42
2023-05-05T19:57:59.172Z,97631.61
2023-05-05T20:00:29.225Z,97628.95
2023-05-05T20:02:55.923Z,97628.27
2023-05-05T20:05:22.684Z,97628.63
2023-05-05T20:07:50.367Z,97628.99
2023-05-05T20:10:17.415Z,97631.08
2023-05-05T20:12:47.145Z,97630.39
2023-05-05T20:15:19.908Z,97634.32
2023-05-05T20:17:47.751Z,97632.45
2023-05-05T20:20:16.979Z,97633.30
2023-05-05T20:22:44.837Z,97633.27
2023-05-05T20:25:12.087Z,97632.39
2023-05-05T20:27:38.939Z,97632.64
2023-05-05T20:30:07.189Z,97632.00
2023-05-05T20:32:34.194Z,97635.27
2023-05-05T20:35:05.431Z,97635.63
2023-05-05T20:37:32.149Z,97635.98
2023-05-05T20:39:58.772Z,97633.13
2023-05-05T20:42:26.954Z,97630.41
2023-05-05T20:44:53.563Z,97629.21
2023-05-05T20:47:20.552Z,97632.23
2023-05-05T20:49:47.461Z,97631.05
2023-05-05T20:52:14.170Z,97631.01
2023-05-05T20:54:40.865Z,97628.43
2023-05-05T20:57:07.496Z,97629.19
2023-05-05T20:59:34.238Z,97630.00
2023-05-05T21:02:01.241Z,97628.91
2023-05-05T21:04:28.437Z,97629.83
2023-05-05T21:06:56.714Z,97625.05
2023-05-05T21:09:23.643Z,97625.02
2023-05-05T21:11:50.322Z,97626.63
2023-05-05T21:14:17.042Z,97629.77
2023-05-05T21:16:43.752Z,97630.17
2023-05-05T21:19:10.626Z,97630.39
2023-05-05T21:21:37.568Z,97632.23
2023-05-05T21:24:06.966Z,97631.06
2023-05-05T21:26:36.678Z,97632.11
2023-05-05T21:29:04.142Z,97630.86
2023-05-05T21:31:30.978Z,97633.85
2023-05-05T21:33:57.800Z,97633.83
2023-05-05T21:36:24.401Z,97634.52
2023-05-05T21:38:54.620Z,97632.84
2023-05-05T21:41:22.565Z,97629.70
2023-05-05T21:43:49.328Z,97626.77
2023-05-05T21:46:17.521Z,97628.74
2023-05-05T21:48:46.569Z,97626.36
2023-05-05T21:51:13.511Z,97625.17
2023-05-05T21:53:40.284Z,97623.61
2023-05-05T21:56:10.189Z,97625.33
2023-05-05T21:58:36.995Z,97629.02
2023-05-05T22:01:03.752Z,97629.73
2023-05-05T22:03:30.625Z,97630.70
2023-05-05T22:05:57.431Z,97630.14
2023-05-05T22:08:24.370Z,97627.77
2023-05-05T22:10:51.738Z,97625.19
2023-05-05T22:13:18.601Z,97623.41
2023-05-05T22:15:47.518Z,97625.14
2023-05-05T22:18:15.505Z,97622.73
2023-05-05T22:20:42.774Z,97623.58
2023-05-05T22:23:09.434Z,97621.11
2023-05-05T22:25:36.244Z,97620.74
2023-05-05T22:28:03.519Z,97620.77
2023-05-05T22:30:30.479Z,97620.34
2023-05-05T22:32:57.274Z,97615.98
2023-05-05T22:35:23.954Z,97616.41
2023-05-05T22:37:51.105Z,97617.75
2023-05-05T22:40:17.852Z,97614.80
2023-05-05T22:42:44.712Z,97611.50
2023-05-05T22:45:12.377Z,97610.27
2023-05-05T22:47:39.432Z,97613.93
2023-05-05T22:50:09.530Z,97613.55
2023-05-05T22:52:36.566Z,97610.02
2023-05-05T22:55:07.182Z,97608.08
2023-05-05T22:57:35.636Z,97608.94
2023-05-05T23:00:04.583Z,97604.69
2023-05-05T23:02:31.830Z,97600.69
2023-05-05T23:04:58.698Z,97606.07
2023-05-05T23:07:25.488Z,97606.23
2023-05-05T23:09:52.555Z,97605.67
2023-05-05T23:12:19.331Z,97609.42
2023-05-05T23:14:46.157Z,97610.96
2023-05-05T23:17:12.966Z,97609.77
2023-05-05T23:19:39.852Z,97603.41
2023-05-05T23:22:06.427Z,97603.72
2023-05-05T23:24:34.647Z,97605.00
2023-05-05T23:27:01.491Z,97606.00
2023-05-05T23:29:28.852Z,97601.24
2023-05-05T23:31:56.254Z,97605.01
2023-05-05T23:34:23.176Z,97601.11
2023-05-05T23:36:49.996Z,97600.27
2023-05-05T23:39:16.784Z,97603.64
2023-05-05T23:41:43.471Z,97599.30
2023-05-05T23:44:10.154Z,97597.55
2023-05-05T23:46:36.829Z,97600.56
2023-05-05T23:49:03.592Z,97595.00
2023-05-05T23:51:30.392Z,97590.83
2023-05-05T23:53:57.177Z,97590.33
2023-05-05T23:56:24.250Z,97586.16
2023-05-05T23:58:53.704Z,97585.66
